Flight Number: EUR1060 Duration: 7:00
Departure: Dubai Int'l (OMDB) at 04:30 Distance: 2959 Nm
Arrival: Gatwick Airport (EGKK) at 11:30 Equipment: B777

Weather Information
Dubai International Airport, United Arab Emirates (OMDB) 25-15N 055-20E 5M Sep 21, 2017 - 10:00 AM EDT / 2017.09.21 1400 UTC
Wind: from the E (080 degrees) at 13 MPH (11 KT) (direction variable):0
Visibility: greater than 7 mile(s):0 Temperature: 105 F (41 C) Dew Point: 30 F (-1 C) Relative Humidity: 7% Pressure (altimeter): 29.56 in. Hg (1001 hPa)
ob: OMDB 211400Z 08011KT 050V110 CAVOK 41/M01 Q1001 NOSIG cycle: 14
Sunrise: 02:09 Sunset: 14:13 (UTC)

London / Gatwick Airport, United Kingdom (EGKK) 51-09N 000-11W 0M Sep 21, 2017 - 09:50 AM EDT / 2017.09.21 1350 UTC
Wind: from the SSW (200 degrees) at 10 MPH (9 KT) (direction variable):0
Visibility: greater than 7 mile(s):0
Sky conditions: mostly cloudy Temperature: 62 F (17 C) Dew Point: 53 F (12 C) Relative Humidity: 72% Pressure (altimeter): 29.94 in. Hg (1014 hPa)
ob: EGKK 211350Z 20009KT 150V230 9999 BKN021 BKN038 17/12 Q1014 cycle: 14
Sunrise: 05:50 Sunset: 17:57 (UTC)

TAF:2017/09/21 12:15 TAF EGKK 211056Z 2112/2218 20012KT 9999 SCT030 TEMPO 2113/2118 8000 -RA BKN012 PROB30 TEMPO 2114/2117 4000 RA BKN008 BECMG 2116/2119 28005KT BECMG 2122/2201 7000 TEMPO 2201/2208 3000 BR BCFG PROB40 2203/2208 0400 FG BKN001 BECMG 2208/2211 9999

Previous Pireps for this route
Date Aircraft Flight time Fuel used Landing rate On time
2013-01-17B7777.141104940No
2013-02-02B7776.551106000Yes
2013-10-17B7778.231792230No
2013-12-26B77707.2487977-362No
2014-05-25B77708.1784347-388No
2014-09-20B7777.541220890Yes
2014-11-28B77707.0779217-342No
2015-05-23B74709.02166683-115Charter
2015-10-13B737645211-645Charter
2016-04-25B7778.151130No
2016-05-28B7776.541330000No
(pireps marked green are flown by you)

Route map